Time;durP1;ratioP1;P1;durP2;ratioP2;P2;SDS_P1;SDS_P2;PMS_P1;PMS_P2;Temp;Humidity;BMP_temperature;BMP_pressure;BME280_temperature;BME280_humidity;BME280_pressure;Samples;Min_cycle;Max_cycle;Signal;HPM_P1;HPM_P2
2022/09/09 00:01:30;;;;;;;3.30;1.27;;;14.70;99.90;;;;;;5012748;28;20444;-67
2022/09/09 00:04:14;;;;;;;2.00;0.83;;;14.60;99.90;;;;;;5000630;28;21208;-67
2022/09/09 00:06:45;;;;;;;1.30;0.50;;;14.60;99.90;;;;;;5029426;28;20759;-67
2022/09/09 00:09:12;;;;;;;3.73;1.10;;;14.60;99.90;;;;;;5021272;28;20425;-67
2022/09/09 00:11:50;;;;;;;2.23;0.70;;;14.60;99.90;;;;;;5016542;28;20466;-67
2022/09/09 00:14:25;;;;;;;3.07;1.10;;;14.60;99.90;;;;;;5006491;28;20452;-66
2022/09/09 00:16:56;;;;;;;1.77;0.73;;;14.60;99.90;;;;;;5000243;28;20433;-68
2022/09/09 00:19:46;;;;;;;2.00;0.70;;;14.70;99.90;;;;;;5025466;28;20472;-67
2022/09/09 00:22:20;;;;;;;2.50;0.83;;;14.70;99.90;;;;;;5023034;28;20459;-67
2022/09/09 00:24:53;;;;;;;2.20;0.90;;;14.80;99.90;;;;;;5029757;28;20412;-67
2022/09/09 00:27:44;;;;;;;1.90;0.70;;;14.80;99.90;;;;;;5024146;28;20454;-67
2022/09/09 00:30:16;;;;;;;1.50;0.70;;;14.90;99.90;;;;;;5023347;28;20421;-67
2022/09/09 00:32:43;;;;;;;2.17;1.10;;;14.90;99.90;;;;;;5013362;28;20429;-67
2022/09/09 00:35:25;;;;;;;3.40;1.43;;;14.90;99.90;;;;;;5023496;28;20839;-67
2022/09/09 00:37:56;;;;;;;3.30;1.00;;;14.90;99.90;;;;;;5008151;28;20729;-67
2022/09/09 00:40:35;;;;;;;1.90;0.80;;;14.80;99.90;;;;;;5024556;28;20464;-67
2022/09/09 00:43:08;;;;;;;2.07;0.80;;;14.80;99.90;;;;;;5010997;28;20410;-67
2022/09/09 00:45:54;;;;;;;2.83;1.20;;;14.80;99.90;;;;;;5029277;28;20405;-67
2022/09/09 00:48:27;;;;;;;10.40;2.20;;;14.80;99.90;;;;;;5031322;28;20405;-67
2022/09/09 00:51:10;;;;;;;2.20;1.10;;;14.70;99.90;;;;;;5031233;28;20405;-67
2022/09/09 00:53:54;;;;;;;1.30;0.60;;;14.70;99.90;;;;;;5031308;28;20420;-67
2022/09/09 00:56:42;;;;;;;3.43;1.20;;;14.60;99.90;;;;;;5013981;28;20417;-67
2022/09/09 00:59:10;;;;;;;2.93;1.10;;;14.50;99.90;;;;;;5000943;28;20464;-67
2022/09/09 01:01:36;;;;;;;1.60;0.80;;;14.50;99.90;;;;;;5024441;28;20429;-67
2022/09/09 01:04:10;;;;;;;2.07;1.00;;;14.50;99.90;;;;;;5021237;28;20467;-67
2022/09/09 01:06:38;;;;;;;12.20;1.60;;;14.50;99.90;;;;;;5000814;28;20759;-67
2022/09/09 01:09:33;;;;;;;8.37;1.10;;;14.50;99.90;;;;;;5011361;28;20432;-67
2022/09/09 01:12:14;;;;;;;2.30;0.87;;;14.50;99.90;;;;;;4993662;28;20433;-67
2022/09/09 01:14:42;;;;;;;2.30;1.03;;;14.50;99.90;;;;;;5028076;28;20519;-67
2022/09/09 01:17:41;;;;;;;10.27;1.40;;;14.40;99.90;;;;;;5035041;28;20456;-67
2022/09/09 01:20:13;;;;;;;1.80;0.83;;;14.30;99.90;;;;;;5018640;28;20864;-67
2022/09/09 01:22:45;;;;;;;7.03;0.80;;;14.30;99.90;;;;;;4999713;28;20473;-67
2022/09/09 01:25:10;;;;;;;6.57;1.47;;;14.30;99.90;;;;;;5024710;28;20428;-67
2022/09/09 01:27:37;;;;;;;3.33;0.87;;;14.30;99.90;;;;;;5013441;28;20921;-67
2022/09/09 01:30:12;;;;;;;3.70;0.70;;;14.20;99.90;;;;;;5005399;28;20184;-67
2022/09/09 01:32:46;;;;;;;1.63;0.80;;;14.20;99.90;;;;;;5016750;28;20848;-67
2022/09/09 01:35:32;;;;;;;3.03;1.10;;;14.20;99.90;;;;;;5034613;28;20413;-68
2022/09/09 01:37:58;;;;;;;2.87;0.80;;;14.20;99.90;;;;;;5003625;28;20422;-67
2022/09/09 01:40:25;;;;;;;1.30;0.67;;;14.10;99.90;;;;;;5016081;28;20468;-68
2022/09/09 01:42:52;;;;;;;3.73;1.27;;;14.10;99.90;;;;;;5033632;28;20213;-67
2022/09/09 01:45:18;;;;;;;5.17;0.60;;;14.10;99.90;;;;;;5005913;28;20418;-67
2022/09/09 01:47:45;;;;;;;2.93;1.10;;;14.10;99.90;;;;;;5014518;28;20537;-67
2022/09/09 01:50:14;;;;;;;7.00;0.80;;;14.00;99.90;;;;;;5016591;28;20482;-67
2022/09/09 01:52:39;;;;;;;1.97;0.83;;;13.90;99.90;;;;;;5033728;28;20921;-67
2022/09/09 01:55:06;;;;;;;2.73;1.07;;;13.90;99.90;;;;;;5012438;28;20430;-67
2022/09/09 01:57:41;;;;;;;2.10;0.90;;;13.80;99.90;;;;;;5022857;28;20182;-67
2022/09/09 02:00:13;;;;;;;1.70;0.60;;;13.70;99.90;;;;;;5034125;28;20463;-67
2022/09/09 02:02:44;;;;;;;2.40;0.83;;;13.90;99.90;;;;;;5033801;28;20857;-67
2022/09/09 02:05:21;;;;;;;2.13;0.60;;;14.00;99.90;;;;;;5029442;28;20508;-67
2022/09/09 02:07:56;;;;;;;1.40;0.63;;;14.00;99.90;;;;;;5026827;28;20449;-67
2022/09/09 02:10:32;;;;;;;2.20;0.77;;;14.10;99.90;;;;;;5034053;28;20451;-67
2022/09/09 02:13:06;;;;;;;1.97;1.03;;;14.10;99.90;;;;;;5018063;28;20931;-67
2022/09/09 02:15:59;;;;;;;1.43;0.60;;;14.10;99.90;;;;;;5021571;28;20418;-67
2022/09/09 02:18:30;;;;;;;5.43;0.77;;;14.10;99.90;;;;;;5014505;28;20739;-67
2022/09/09 02:20:57;;;;;;;3.60;0.60;;;14.00;99.90;;;;;;5015063;28;20460;-67
2022/09/09 02:23:23;;;;;;;3.87;1.27;;;14.00;99.90;;;;;;5033672;28;20440;-67
2022/09/09 02:25:51;;;;;;;2.50;1.03;;;14.00;99.90;;;;;;5032264;28;20501;-67
2022/09/09 02:28:21;;;;;;;5.93;1.03;;;13.90;99.90;;;;;;5018565;28;20429;-67
2022/09/09 02:30:54;;;;;;;1.87;0.73;;;13.80;99.90;;;;;;5030127;28;20413;-67
2022/09/09 02:33:24;;;;;;;1.70;0.60;;;13.80;99.90;;;;;;5033662;28;20409;-67
2022/09/09 02:35:52;;;;;;;3.77;1.00;;;13.70;99.90;;;;;;5017140;28;20418;-68
2022/09/09 02:38:20;;;;;;;2.73;0.70;;;13.70;99.90;;;;;;5013829;28;20414;-67
2022/09/09 02:40:46;;;;;;;2.03;0.67;;;13.70;99.90;;;;;;5027120;28;20505;-67
2022/09/09 02:43:16;;;;;;;2.90;0.97;;;13.60;99.90;;;;;;5024486;28;20500;-67
2022/09/09 02:46:00;;;;;;;1.97;0.93;;;13.50;99.90;;;;;;5033306;28;20214;-67
2022/09/09 02:48:45;;;;;;;2.27;1.23;;;13.50;99.90;;;;;;5019361;28;20414;-67
2022/09/09 02:51:50;;;;;;;1.23;0.50;;;13.40;99.90;;;;;;5013520;28;20414;-66
2022/09/09 02:54:45;;;;;;;1.90;0.80;;;13.30;99.90;;;;;;4996694;28;20881;-67
2022/09/09 02:57:19;;;;;;;1.50;0.60;;;13.20;99.90;;;;;;5002428;28;20434;-67
2022/09/09 02:59:45;;;;;;;4.33;0.87;;;13.20;99.90;;;;;;5019474;28;20803;-67
2022/09/09 03:02:11;;;;;;;1.73;0.60;;;13.20;99.90;;;;;;5012847;28;20414;-67
2022/09/09 03:04:37;;;;;;;3.10;0.80;;;13.10;99.90;;;;;;5025913;28;20421;-67
2022/09/09 03:07:03;;;;;;;3.83;0.80;;;13.10;99.90;;;;;;5013603;28;20414;-67
2022/09/09 03:09:29;;;;;;;2.53;1.13;;;13.10;99.90;;;;;;5026380;28;20508;-68
2022/09/09 03:11:55;;;;;;;1.40;0.63;;;13.10;99.90;;;;;;5019403;28;20421;-67
2022/09/09 03:14:24;;;;;;;2.30;0.87;;;13.00;99.90;;;;;;5032796;28;20433;-67
2022/09/09 03:16:53;;;;;;;1.77;0.70;;;13.00;99.90;;;;;;5032590;28;20205;-67
2022/09/09 03:19:20;;;;;;;2.03;0.70;;;13.00;99.90;;;;;;5019448;28;20457;-67
2022/09/09 03:21:47;;;;;;;1.90;0.70;;;13.00;99.90;;;;;;5024451;28;20528;-67
2022/09/09 03:24:13;;;;;;;1.40;0.70;;;13.00;99.90;;;;;;5026145;28;20501;-67
2022/09/09 03:26:40;;;;;;;6.00;0.80;;;13.10;99.90;;;;;;5017100;28;20408;-67
2022/09/09 03:29:06;;;;;;;2.50;0.80;;;13.00;99.90;;;;;;5011474;28;20422;-68
2022/09/09 03:31:33;;;;;;;1.43;0.73;;;13.00;99.90;;;;;;5012572;28;20970;-67
2022/09/09 03:33:59;;;;;;;4.13;1.07;;;13.00;99.90;;;;;;5025901;28;20726;-67
2022/09/09 03:36:26;;;;;;;6.00;1.00;;;12.80;99.90;;;;;;5012995;28;20433;-67
2022/09/09 03:38:54;;;;;;;1.97;0.97;;;12.80;99.90;;;;;;5027248;28;20281;-67
2022/09/09 03:41:20;;;;;;;1.40;0.60;;;12.80;99.90;;;;;;5022606;28;20479;-67
2022/09/09 03:43:46;;;;;;;4.43;0.70;;;12.80;99.90;;;;;;5025278;28;20413;-67
2022/09/09 03:46:12;;;;;;;2.13;1.07;;;12.80;99.90;;;;;;5021331;28;20475;-67
2022/09/09 03:48:37;;;;;;;1.97;0.73;;;12.80;99.90;;;;;;5030294;28;20548;-67
2022/09/09 03:51:03;;;;;;;1.33;0.63;;;12.80;99.90;;;;;;5020842;28;20183;-67
2022/09/09 03:53:29;;;;;;;4.17;1.10;;;12.90;99.90;;;;;;5031993;28;20233;-67
2022/09/09 03:55:59;;;;;;;2.90;0.77;;;12.90;99.90;;;;;;5010383;28;20179;-67
2022/09/09 03:58:26;;;;;;;1.40;0.60;;;12.80;99.90;;;;;;5028056;28;20421;-67
2022/09/09 04:01:04;;;;;;;2.67;0.60;;;12.90;99.90;;;;;;5022431;28;20470;-67
2022/09/09 04:03:30;;;;;;;5.83;1.00;;;12.90;99.90;;;;;;5016883;28;20849;-67
2022/09/09 04:05:58;;;;;;;2.97;1.20;;;12.90;99.90;;;;;;5020841;28;20428;-67
2022/09/09 04:08:26;;;;;;;1.47;0.67;;;12.90;99.90;;;;;;5025834;28;20413;-67
2022/09/09 04:10:53;;;;;;;1.50;0.70;;;12.90;99.90;;;;;;5023470;28;21207;-67
2022/09/09 04:13:19;;;;;;;2.50;0.83;;;12.90;99.90;;;;;;5018243;28;20483;-67
2022/09/09 04:15:52;;;;;;;3.90;1.10;;;13.00;99.90;;;;;;5031757;28;20924;-68
2022/09/09 04:18:19;;;;;;;1.40;0.60;;;13.10;99.90;;;;;;5025665;28;20421;-67
2022/09/09 04:20:47;;;;;;;2.50;0.90;;;13.20;99.90;;;;;;5024884;28;20448;-67
2022/09/09 04:23:13;;;;;;;2.73;1.13;;;13.30;99.90;;;;;;5017721;28;20458;-67
2022/09/09 04:25:46;;;;;;;1.70;0.87;;;13.50;99.90;;;;;;5029586;28;20424;-67
2022/09/09 04:28:13;;;;;;;6.90;1.17;;;13.50;99.90;;;;;;5016830;28;20422;-67
2022/09/09 04:30:39;;;;;;;2.43;1.07;;;13.60;99.90;;;;;;5013445;28;20441;-67
2022/09/09 04:33:06;;;;;;;3.60;0.87;;;13.70;99.90;;;;;;5030934;28;20417;-67
2022/09/09 04:35:32;;;;;;;2.03;0.80;;;13.80;99.90;;;;;;5018225;28;20946;-67
2022/09/09 04:37:58;;;;;;;4.87;1.50;;;13.80;99.90;;;;;;5031374;28;20425;-67
2022/09/09 04:40:25;;;;;;;7.10;2.80;;;13.80;99.90;;;;;;5017816;28;20465;-67
2022/09/09 04:42:51;;;;;;;40.77;10.00;;;13.90;99.90;;;;;;5030356;28;20663;-67
2022/09/09 04:45:18;;;;;;;29.00;8.37;;;13.90;99.90;;;;;;5016026;28;20414;-67
2022/09/09 04:47:43;;;;;;;33.77;10.10;;;13.90;99.90;;;;;;5020090;28;20930;-67
2022/09/09 04:50:09;;;;;;;54.63;9.03;;;13.90;99.90;;;;;;5028860;28;20456;-67
2022/09/09 04:52:35;;;;;;;17.47;7.20;;;14.00;99.90;;;;;;5011013;28;20211;-67
2022/09/09 04:55:01;;;;;;;36.37;11.43;;;14.00;99.90;;;;;;5013537;28;20198;-67
2022/09/09 04:57:28;;;;;;;36.37;12.37;;;14.00;99.90;;;;;;5026123;28;20508;-67
2022/09/09 04:59:54;;;;;;;73.53;18.20;;;13.90;99.90;;;;;;5030820;28;20843;-67
2022/09/09 05:02:19;;;;;;;49.07;16.53;;;13.90;99.90;;;;;;5030369;28;20417;-67
2022/09/09 05:04:45;;;;;;;91.17;23.87;;;14.00;99.90;;;;;;5031070;28;20243;-67
2022/09/09 05:07:11;;;;;;;54.03;12.40;;;14.00;99.90;;;;;;5022595;28;20179;-67
2022/09/09 05:09:36;;;;;;;19.13;4.73;;;14.10;99.90;;;;;;5026245;28;20186;-67
2022/09/09 05:12:02;;;;;;;3.53;1.33;;;14.10;99.90;;;;;;5021480;28;20738;-67
2022/09/09 05:14:29;;;;;;;6.10;1.93;;;14.10;99.90;;;;;;5012832;28;20548;-66
2022/09/09 05:16:55;;;;;;;10.90;4.23;;;14.20;99.90;;;;;;5022509;28;20906;-65
2022/09/09 05:19:21;;;;;;;33.37;12.30;;;14.20;99.90;;;;;;5026006;28;20461;-66
2022/09/09 05:21:47;;;;;;;46.17;14.30;;;14.20;99.90;;;;;;5022403;28;20424;-66
2022/09/09 05:24:12;;;;;;;29.87;11.73;;;14.10;99.90;;;;;;5012271;28;20180;-65
2022/09/09 05:26:38;;;;;;;22.17;8.87;;;14.20;99.90;;;;;;5018433;28;20217;-65
2022/09/09 05:29:04;;;;;;;14.13;6.40;;;14.20;99.90;;;;;;5011620;28;20187;-65
2022/09/09 05:31:30;;;;;;;7.40;2.07;;;14.30;99.90;;;;;;5022502;28;20183;-65
2022/09/09 05:33:56;;;;;;;1.60;1.07;;;14.20;99.90;;;;;;5013145;28;20430;-65
2022/09/09 05:36:23;;;;;;;3.10;0.70;;;14.20;99.90;;;;;;5013834;28;20420;-65
2022/09/09 05:38:49;;;;;;;1.60;0.60;;;14.30;99.90;;;;;;5026636;28;20198;-66
2022/09/09 05:41:17;;;;;;;1.50;0.80;;;14.30;99.90;;;;;;5013719;28;20423;-66
2022/09/09 05:43:47;;;;;;;3.83;1.10;;;14.30;99.90;;;;;;5008388;28;20422;-66
2022/09/09 05:46:21;;;;;;;2.17;0.83;;;14.40;99.90;;;;;;5021874;28;20418;-65
2022/09/09 05:48:49;;;;;;;3.40;1.13;;;14.50;99.90;;;;;;5028316;28;20836;-66
2022/09/09 05:51:18;;;;;;;2.83;1.00;;;14.30;99.90;;;;;;5030786;28;20429;-66
2022/09/09 05:53:45;;;;;;;2.13;0.80;;;14.30;99.90;;;;;;5004414;28;20475;-66
2022/09/09 05:56:15;;;;;;;3.77;0.90;;;14.30;99.90;;;;;;5028176;28;20421;-65
2022/09/09 05:58:44;;;;;;;1.40;0.60;;;14.30;99.90;;;;;;5015987;28;20959;-66
2022/09/09 06:01:13;;;;;;;2.50;0.77;;;14.40;99.90;;;;;;5031140;28;20429;-66
2022/09/09 06:03:40;;;;;;;1.73;0.73;;;14.40;99.90;;;;;;5015354;28;20424;-66
2022/09/09 06:06:14;;;;;;;2.90;0.90;;;14.40;99.90;;;;;;5027819;28;20504;-65
2022/09/09 06:08:43;;;;;;;1.43;0.60;;;14.40;99.90;;;;;;5001865;28;20438;-65
2022/09/09 06:11:11;;;;;;;2.00;0.77;;;14.40;99.90;;;;;;5025465;28;20425;-65
2022/09/09 06:13:38;;;;;;;1.90;0.87;;;14.50;99.90;;;;;;5020625;28;20436;-66
2022/09/09 06:16:07;;;;;;;4.07;0.77;;;14.50;99.90;;;;;;5007645;28;20431;-65
2022/09/09 06:18:32;;;;;;;2.63;1.20;;;14.60;99.90;;;;;;5033693;28;20452;-65
2022/09/09 06:21:00;;;;;;;8.00;1.10;;;14.70;99.90;;;;;;5020084;28;20454;-65
2022/09/09 06:23:28;;;;;;;1.53;0.60;;;14.80;99.90;;;;;;5012482;28;20418;-65
2022/09/09 06:26:02;;;;;;;2.40;1.13;;;14.80;99.90;;;;;;5016181;28;20958;-65
2022/09/09 06:28:28;;;;;;;1.50;0.60;;;14.90;99.90;;;;;;5003577;28;20425;-65
2022/09/09 06:30:58;;;;;;;2.07;0.83;;;14.90;99.90;;;;;;5010277;28;20458;-66
2022/09/09 06:33:24;;;;;;;1.57;0.83;;;15.00;99.90;;;;;;5019420;28;20179;-65
2022/09/09 06:35:54;;;;;;;3.80;1.10;;;15.10;99.90;;;;;;5020550;28;20434;-65
2022/09/09 06:38:21;;;;;;;1.70;0.87;;;15.10;99.90;;;;;;5033865;28;20683;-65
2022/09/09 06:40:55;;;;;;;1.90;0.80;;;15.10;99.90;;;;;;5020572;28;20409;-66
2022/09/09 06:43:21;;;;;;;2.27;0.83;;;15.10;99.90;;;;;;5032837;28;20409;-65
2022/09/09 06:45:54;;;;;;;1.50;0.60;;;15.30;99.90;;;;;;5033722;28;20406;-66
2022/09/09 06:48:20;;;;;;;1.30;0.50;;;15.30;99.90;;;;;;5020827;28;20414;-66
2022/09/09 06:50:46;;;;;;;2.23;1.10;;;15.30;99.90;;;;;;5027179;28;20960;-65
2022/09/09 06:53:11;;;;;;;2.10;1.00;;;15.40;99.90;;;;;;5013684;28;20203;-65
2022/09/09 06:55:37;;;;;;;1.93;0.73;;;15.40;99.90;;;;;;5012035;28;20258;-65
2022/09/09 06:58:08;;;;;;;5.60;0.90;;;15.50;99.90;;;;;;5025822;28;20631;-65
2022/09/09 07:00:33;;;;;;;2.83;0.87;;;15.50;99.90;;;;;;4994264;28;20239;-65
2022/09/09 07:02:59;;;;;;;2.90;0.87;;;15.60;99.90;;;;;;4993410;28;20887;-66
2022/09/09 07:05:25;;;;;;;1.70;0.73;;;15.60;99.90;;;;;;5033441;28;20189;-66
2022/09/09 07:07:51;;;;;;;2.43;1.13;;;15.70;99.90;;;;;;5020053;28;20201;-66
2022/09/09 07:10:17;;;;;;;4.13;0.97;;;15.70;99.90;;;;;;5011034;28;20419;-66
2022/09/09 07:12:43;;;;;;;2.63;1.00;;;15.80;99.90;;;;;;5002683;28;20590;-65
2022/09/09 07:15:09;;;;;;;4.77;0.77;;;15.90;99.90;;;;;;5025665;28;20214;-65
2022/09/09 07:17:35;;;;;;;1.90;0.90;;;16.00;99.90;;;;;;5026442;28;20630;-66
2022/09/09 07:20:02;;;;;;;1.93;0.70;;;16.10;99.90;;;;;;5020041;28;20548;-65
2022/09/09 07:22:28;;;;;;;4.23;1.17;;;16.20;99.90;;;;;;5012527;28;20180;-65
2022/09/09 07:24:54;;;;;;;1.57;0.83;;;16.20;99.90;;;;;;5030153;28;20893;-66
2022/09/09 07:27:19;;;;;;;1.83;0.60;;;16.40;99.90;;;;;;5025184;28;20418;-65
2022/09/09 07:29:45;;;;;;;1.80;0.80;;;16.60;99.90;;;;;;5013130;28;20193;-66
2022/09/09 07:32:11;;;;;;;2.60;1.00;;;16.60;99.90;;;;;;5026715;28;20277;-65
2022/09/09 07:34:37;;;;;;;2.33;0.80;;;16.80;99.90;;;;;;5033157;28;20185;-65
2022/09/09 07:37:02;;;;;;;2.27;0.83;;;17.20;99.90;;;;;;5032532;28;20183;-66
2022/09/09 07:39:28;;;;;;;9.17;1.23;;;17.40;99.90;;;;;;5023733;28;20190;-66
2022/09/09 07:41:57;;;;;;;1.73;0.80;;;17.50;99.90;;;;;;5030826;28;20186;-66
2022/09/09 07:44:24;;;;;;;3.87;1.10;;;17.50;99.90;;;;;;5013137;28;20175;-66
2022/09/09 07:46:50;;;;;;;4.90;0.63;;;17.50;99.90;;;;;;5014555;28;20552;-66
2022/09/09 07:49:17;;;;;;;1.47;0.60;;;17.40;99.90;;;;;;5024640;28;20425;-66
2022/09/09 07:51:45;;;;;;;11.60;1.03;;;17.60;99.90;;;;;;5027502;28;20525;-66
2022/09/09 07:54:14;;;;;;;2.10;0.80;;;18.20;99.90;;;;;;5021797;28;20910;-66
2022/09/09 07:56:41;;;;;;;2.90;0.83;;;19.00;99.90;;;;;;5011054;28;21178;-66
2022/09/09 07:59:07;;;;;;;1.37;0.53;;;19.90;99.90;;;;;;5032082;28;20461;-66
2022/09/09 08:01:38;;;;;;;3.17;1.07;;;20.60;98.40;;;;;;5018723;28;20430;-66
2022/09/09 08:04:07;;;;;;;2.40;0.83;;;21.00;97.40;;;;;;5022769;28;20406;-66
2022/09/09 08:06:39;;;;;;;2.83;0.90;;;21.20;96.70;;;;;;5012552;28;20426;-66
2022/09/09 08:09:07;;;;;;;3.87;1.20;;;22.00;95.60;;;;;;5023450;28;20424;-66
2022/09/09 08:11:33;;;;;;;3.70;1.00;;;22.30;95.10;;;;;;5018397;28;20419;-66
2022/09/09 08:13:59;;;;;;;2.07;0.90;;;22.60;94.10;;;;;;5031712;28;20440;-66
2022/09/09 08:16:28;;;;;;;1.80;0.70;;;22.70;93.90;;;;;;5005781;28;20416;-66
2022/09/09 08:18:54;;;;;;;2.10;0.70;;;22.90;93.90;;;;;;5020495;28;20458;-66
2022/09/09 08:21:26;;;;;;;2.57;0.97;;;22.90;93.50;;;;;;5030094;28;20423;-66
2022/09/09 08:23:53;;;;;;;1.40;0.60;;;22.90;93.40;;;;;;5007626;28;20426;-66
2022/09/09 08:26:23;;;;;;;3.13;1.13;;;22.80;93.50;;;;;;5012194;28;20417;-67
2022/09/09 08:28:53;;;;;;;3.87;1.00;;;22.60;93.30;;;;;;5010860;28;20761;-66
2022/09/09 08:31:20;;;;;;;3.93;0.70;;;22.40;93.60;;;;;;5005696;28;20948;-66
2022/09/09 08:33:46;;;;;;;1.93;0.87;;;22.50;93.70;;;;;;5018432;28;20531;-66
2022/09/09 08:36:15;;;;;;;2.03;0.70;;;22.60;93.10;;;;;;5018910;28;20912;-66
2022/09/09 08:38:41;;;;;;;3.90;0.83;;;22.50;92.60;;;;;;5018587;28;20194;-66
2022/09/09 08:41:28;;;;;;;1.53;0.70;;;23.00;92.60;;;;;;5023784;28;20434;-66
2022/09/09 08:44:19;;;;;;;4.30;1.03;;;23.10;92.30;;;;;;5010556;28;20780;-66
2022/09/09 08:47:02;;;;;;;3.20;1.33;;;23.70;91.60;;;;;;5012161;28;20413;-66
2022/09/09 08:49:36;;;;;;;2.30;0.83;;;24.60;90.60;;;;;;4999015;28;20447;-66
2022/09/09 08:52:02;;;;;;;2.10;1.10;;;24.70;89.80;;;;;;5010063;28;20250;-66
2022/09/09 08:54:33;;;;;;;3.30;1.23;;;24.60;88.80;;;;;;5005836;28;20190;-66
2022/09/09 08:56:59;;;;;;;5.40;1.27;;;24.00;89.70;;;;;;5011272;28;20217;-66
2022/09/09 08:59:24;;;;;;;2.93;1.17;;;24.00;89.90;;;;;;5011954;28;20615;-66
2022/09/09 09:02:03;;;;;;;6.47;0.90;;;23.90;89.30;;;;;;5027768;28;20174;-66
2022/09/09 09:04:44;;;;;;;1.67;0.63;;;23.10;90.20;;;;;;5031512;28;20173;-66
2022/09/09 09:07:35;;;;;;;3.83;1.43;;;21.70;94.20;;;;;;5006018;28;20412;-66
2022/09/09 09:10:30;;;;;;;1.90;0.90;;;20.50;99.60;;;;;;5020311;28;20434;-66
2022/09/09 09:12:56;;;;;;;1.57;0.80;;;19.60;99.90;;;;;;5002582;28;20445;-65
2022/09/09 09:15:30;;;;;;;2.07;0.77;;;18.90;99.90;;;;;;5017619;28;20413;-65
2022/09/09 09:17:55;;;;;;;2.43;0.63;;;18.60;99.90;;;;;;5009522;28;20430;-66
2022/09/09 09:20:47;;;;;;;1.60;0.70;;;18.50;99.00;;;;;;5018296;28;20467;-66
2022/09/09 09:23:24;;;;;;;1.90;0.93;;;18.90;99.10;;;;;;5028636;28;20557;-66
2022/09/09 09:25:57;;;;;;;2.60;0.60;;;19.20;99.90;;;;;;5012340;28;20910;-66
2022/09/09 09:28:25;;;;;;;1.40;0.50;;;19.20;99.90;;;;;;5003503;28;20413;-66
2022/09/09 09:31:03;;;;;;;3.50;1.23;;;19.20;99.90;;;;;;5023383;28;20532;-66
2022/09/09 09:33:52;;;;;;;3.00;1.10;;;19.00;99.90;;;;;;5021299;28;20749;-66
2022/09/09 09:36:18;;;;;;;4.03;0.80;;;19.00;99.90;;;;;;4999351;28;20425;-66
2022/09/09 09:38:56;;;;;;;3.20;0.90;;;19.00;99.90;;;;;;5028233;28;20546;-66
2022/09/09 09:41:31;;;;;;;5.87;1.23;;;19.10;99.90;;;;;;5033133;28;20421;-66
2022/09/09 09:43:56;;;;;;;1.80;0.93;;;19.20;99.90;;;;;;5032545;28;20416;-66
2022/09/09 09:46:25;;;;;;;1.57;0.70;;;19.50;99.90;;;;;;5013435;28;20897;-66
2022/09/09 09:49:05;;;;;;;2.80;0.80;;;19.70;99.90;;;;;;5013505;28;20209;-66
2022/09/09 09:51:32;;;;;;;4.20;0.97;;;20.20;99.90;;;;;;5026100;28;20424;-66
2022/09/09 09:54:13;;;;;;;3.83;1.00;;;20.40;99.90;;;;;;5013121;28;20784;-66
2022/09/09 09:56:40;;;;;;;3.67;0.83;;;20.80;99.90;;;;;;5021883;28;20432;-66
2022/09/09 09:59:19;;;;;;;1.40;0.60;;;21.00;96.30;;;;;;5012632;28;20469;-67
2022/09/09 10:01:44;;;;;;;1.73;0.60;;;21.10;95.60;;;;;;5016357;28;20421;-66
2022/09/09 10:04:22;;;;;;;1.67;0.80;;;21.30;96.10;;;;;;5018211;28;20482;-66
2022/09/09 10:06:49;;;;;;;2.90;0.77;;;21.60;94.60;;;;;;5013362;28;20185;-66
2022/09/09 10:09:27;;;;;;;1.87;0.73;;;21.70;94.40;;;;;;5013333;28;20434;-66
2022/09/09 10:11:53;;;;;;;3.10;1.20;;;21.90;95.10;;;;;;4999503;28;20421;-66
2022/09/09 10:14:30;;;;;;;3.20;1.20;;;22.10;93.20;;;;;;5013062;28;20446;-66
2022/09/09 10:17:13;;;;;;;1.83;0.80;;;22.30;92.70;;;;;;5012838;28;20639;-66
2022/09/09 10:19:50;;;;;;;4.70;0.80;;;22.30;91.20;;;;;;5030474;28;20460;-66
2022/09/09 10:22:34;;;;;;;2.53;0.73;;;22.00;95.80;;;;;;5032112;28;20448;-66
2022/09/09 10:25:09;;;;;;;1.67;0.77;;;21.90;94.50;;;;;;5031388;28;21105;-66
2022/09/09 10:27:56;;;;;;;1.70;0.80;;;21.90;93.70;;;;;;5022747;28;20413;-67
2022/09/09 10:30:30;;;;;;;1.40;0.60;;;21.90;94.60;;;;;;5025055;28;20483;-66
2022/09/09 10:33:08;;;;;;;1.90;0.80;;;22.10;97.20;;;;;;5041334;22;20485;-66
2022/09/09 10:36:08;;;;;;;2.50;1.03;;;22.30;96.20;;;;;;5008019;28;20426;-66
2022/09/09 10:38:36;;;;;;;7.73;1.10;;;22.20;96.30;;;;;;4999299;28;20514;-66
2022/09/09 10:41:13;;;;;;;3.60;0.90;;;22.10;96.40;;;;;;4992393;28;20419;-66
2022/09/09 10:43:58;;;;;;;1.70;0.80;;;22.30;94.60;;;;;;5007191;28;20417;-66
2022/09/09 10:46:35;;;;;;;1.80;0.70;;;21.90;95.60;;;;;;5012553;28;20425;-66
2022/09/09 10:49:07;;;;;;;2.47;0.67;;;21.60;96.30;;;;;;5006182;28;20537;-66
2022/09/09 10:52:12;;;;;;;1.83;0.77;;;21.60;93.30;;;;;;4992550;28;20469;-66
2022/09/09 10:55:12;;;;;;;1.40;0.50;;;21.30;93.50;;;;;;4987487;28;20438;-66
2022/09/09 10:57:48;;;;;;;8.30;0.90;;;21.00;95.70;;;;;;4995658;28;20429;-66
2022/09/09 11:00:21;;;;;;;1.83;0.87;;;20.70;95.20;;;;;;4991967;28;20469;-66
2022/09/09 11:03:00;;;;;;;1.30;0.60;;;20.60;94.70;;;;;;5004225;28;20875;-66
2022/09/09 11:05:41;;;;;;;9.90;0.87;;;20.20;93.80;;;;;;5003122;28;21008;-65
2022/09/09 11:08:18;;;;;;;1.93;0.70;;;19.70;93.40;;;;;;5011431;28;20518;-68
2022/09/09 11:10:55;;;;;;;2.90;0.93;;;19.30;93.30;;;;;;5011699;28;20417;-66
2022/09/09 11:13:27;;;;;;;3.57;1.30;;;18.90;93.90;;;;;;5010482;28;20450;-66
2022/09/09 11:15:59;;;;;;;2.53;0.50;;;18.80;95.40;;;;;;5011166;28;20522;-67
2022/09/09 11:18:26;;;;;;;4.43;0.80;;;18.60;95.60;;;;;;5010584;28;20437;-66
2022/09/09 11:20:59;;;;;;;5.80;0.63;;;18.50;96.60;;;;;;5010668;28;20473;-66
2022/09/09 11:23:34;;;;;;;1.70;0.90;;;18.30;95.90;;;;;;4992992;28;20426;-66
2022/09/09 11:26:03;;;;;;;2.27;0.60;;;17.80;95.80;;;;;;5009472;28;20418;-66
2022/09/09 11:28:52;;;;;;;5.67;0.90;;;17.70;96.60;;;;;;5005616;28;20418;-67
2022/09/09 11:32:04;;;;;;;1.30;0.50;;;17.70;97.00;;;;;;4991270;28;20423;-66
2022/09/09 11:35:08;;;;;;;1.60;0.63;;;17.80;96.90;;;;;;5003902;28;20438;-65
2022/09/09 11:37:58;;;;;;;1.50;0.50;;;17.90;96.60;;;;;;4989151;28;20438;-66
2022/09/09 11:40:26;;;;;;;4.13;0.80;;;17.80;96.40;;;;;;5006067;28;20474;-66
2022/09/09 11:43:12;;;;;;;1.27;0.50;;;18.00;96.90;;;;;;5010138;28;20422;-66
2022/09/09 11:45:39;;;;;;;1.60;0.60;;;18.20;96.50;;;;;;5006706;28;20427;-66
2022/09/09 11:48:07;;;;;;;1.27;0.40;;;18.40;95.90;;;;;;5002552;28;20430;-66
2022/09/09 11:50:36;;;;;;;2.60;0.63;;;18.60;95.60;;;;;;5010373;28;20421;-66
2022/09/09 11:53:22;;;;;;;1.30;0.50;;;18.80;95.30;;;;;;5011022;28;20449;-66
2022/09/09 11:55:59;;;;;;;2.03;0.50;;;19.00;94.20;;;;;;5011915;28;20433;-66
2022/09/09 11:58:25;;;;;;;1.30;0.50;;;19.10;95.50;;;;;;5007147;28;20432;-66
2022/09/09 12:00:52;;;;;;;2.13;0.60;;;19.60;93.70;;;;;;5011923;28;20473;-66
2022/09/09 12:03:39;;;;;;;2.00;0.80;;;20.10;93.80;;;;;;5009383;28;20212;-67
2022/09/09 12:06:16;;;;;;;1.60;0.60;;;20.30;92.50;;;;;;5005064;28;20445;-66
2022/09/09 12:08:45;;;;;;;8.50;0.77;;;20.50;91.90;;;;;;4999915;28;20445;-70
2022/09/09 12:11:11;;;;;;;1.30;0.40;;;20.60;92.10;;;;;;5011754;28;20414;-67
2022/09/09 12:13:37;;;;;;;1.73;0.60;;;20.90;90.90;;;;;;4999336;28;20416;-66
2022/09/09 12:16:05;;;;;;;1.30;0.50;;;21.00;90.90;;;;;;5012376;28;20226;-66
2022/09/09 12:18:44;;;;;;;1.30;0.50;;;21.00;90.50;;;;;;5005092;28;20194;-67
2022/09/09 12:21:32;;;;;;;2.63;0.80;;;21.10;90.50;;;;;;5007994;28;20433;-67
2022/09/09 12:24:09;;;;;;;2.40;0.87;;;20.80;91.00;;;;;;5000399;28;20414;-66
2022/09/09 12:26:37;;;;;;;1.80;0.70;;;20.40;91.50;;;;;;4999534;28;20484;-66
2022/09/09 12:29:11;;;;;;;1.40;0.60;;;20.00;92.30;;;;;;5004407;28;20429;-67
2022/09/09 12:31:56;;;;;;;4.40;0.60;;;19.90;92.60;;;;;;4992056;28;20422;-66
2022/09/09 12:34:41;;;;;;;1.70;0.77;;;20.20;92.30;;;;;;4992462;28;20443;-66
2022/09/09 12:37:20;;;;;;;5.60;0.93;;;20.20;92.50;;;;;;4993159;28;20465;-66
2022/09/09 12:39:51;;;;;;;7.90;0.93;;;20.20;92.80;;;;;;5003192;28;20516;-66
2022/09/09 12:42:19;;;;;;;1.40;0.50;;;20.30;92.30;;;;;;5004399;28;20434;-66
2022/09/09 12:44:56;;;;;;;1.70;0.60;;;20.30;92.40;;;;;;5002338;28;20504;-66
2022/09/09 12:47:51;;;;;;;4.70;0.63;;;20.40;91.20;;;;;;5011701;28;20456;-66
2022/09/09 12:50:30;;;;;;;2.50;0.70;;;20.20;91.00;;;;;;5009660;28;20549;-66
2022/09/09 12:52:59;;;;;;;4.03;0.73;;;19.90;90.00;;;;;;5011430;28;20504;-66
2022/09/09 12:55:29;;;;;;;2.47;0.50;;;19.90;90.50;;;;;;4998652;28;20694;-67
2022/09/09 12:57:56;;;;;;;7.33;0.70;;;20.10;90.30;;;;;;4999778;28;20431;-66
2022/09/09 13:00:24;;;;;;;1.30;0.50;;;20.10;90.00;;;;;;4992087;28;20458;-66
2022/09/09 13:02:51;;;;;;;2.37;0.70;;;20.20;90.60;;;;;;5008230;28;20425;-66
2022/09/09 13:05:24;;;;;;;2.23;1.00;;;20.40;89.80;;;;;;5011810;28;20473;-66
2022/09/09 13:07:50;;;;;;;1.50;0.70;;;20.90;88.00;;;;;;4999229;28;20442;-67
2022/09/09 13:10:24;;;;;;;3.73;0.90;;;20.90;89.60;;;;;;5012785;28;20428;-66